Time;durP1;ratioP1;P1;durP2;ratioP2;P2;SDS_P1;SDS_P2;PMS_P1;PMS_P2;Temp;Humidity;BMP_temperature;BMP_pressure;BME280_temperature;BME280_humidity;BME280_pressure;Samples;Min_cycle;Max_cycle;Signal;HPM_P1;HPM_P2
2022/12/16 00:01:06;;;;;;;;;;;;;;;-2.87;44.22;100615.59;5098565;28;19919;-80
2022/12/16 00:03:35;;;;;;;;;;;;;;;-2.89;44.38;100609.41;5107456;28;19930;-78
2022/12/16 00:06:03;;;;;;;;;;;;;;;-2.90;44.43;100605.88;5090216;28;19920;-78
2022/12/16 00:08:32;;;;;;;;;;;;;;;-2.89;44.55;100604.94;5104660;28;20389;-80
2022/12/16 00:11:00;;;;;;;;;;;;;;;-2.90;44.46;100603.19;5105081;28;19919;-78
2022/12/16 00:13:30;;;;;;;;;;;;;;;-2.90;44.39;100605.88;5090244;28;19927;-79
2022/12/16 00:15:59;;;;;;;;;;;;;;;-2.90;44.26;100608.53;5106480;28;19931;-80
2022/12/16 00:18:27;;;;;;;;;;;;;;;-2.90;44.51;100592.47;5088785;28;20014;-79
2022/12/16 00:20:55;;;;;;;;;;;;;;;-2.90;44.46;100605.88;5089690;28;19924;-80
2022/12/16 00:23:23;;;;;;;;;;;;;;;-2.91;44.55;100612.16;5091854;28;19920;-79
2022/12/16 00:25:50;;;;;;;;;;;;;;;-2.91;44.55;100608.59;5108668;28;19932;-78
2022/12/16 00:28:22;;;;;;;;;;;;;;;-2.93;44.43;100614.00;5106896;28;20665;-79
2022/12/16 00:30:51;;;;;;;;;;;;;;;-2.94;44.39;100601.53;5090106;28;19933;-79
2022/12/16 00:33:23;;;;;;;;;;;;;;;-2.94;44.25;100606.88;5110736;28;19928;-79
2022/12/16 00:35:51;;;;;;;;;;;;;;;-2.95;44.55;100599.81;5110451;28;19942;-80
2022/12/16 00:38:20;;;;;;;;;;;;;;;-2.94;44.32;100616.75;5090351;28;19920;-78
2022/12/16 00:40:48;;;;;;;;;;;;;;;-2.96;44.20;100608.78;5105835;28;20338;-79
2022/12/16 00:43:15;;;;;;;;;;;;;;;-2.96;44.28;100603.41;5110410;28;19919;-79
2022/12/16 00:45:43;;;;;;;;;;;;;;;-2.97;44.21;100616.84;5110722;28;19924;-80
2022/12/16 00:48:12;;;;;;;;;;;;;;;-2.97;44.32;100616.84;5100276;28;19920;-80
2022/12/16 00:50:40;;;;;;;;;;;;;;;-2.98;44.52;100613.31;5085288;28;19919;-81
2022/12/16 00:53:08;;;;;;;;;;;;;;;-2.98;44.43;100621.34;5102802;28;19923;-79
2022/12/16 00:55:36;;;;;;;;;;;;;;;-2.97;44.41;100611.50;5110206;28;20158;-80
2022/12/16 00:58:03;;;;;;;;;;;;;;;-2.98;44.43;100615.97;5091497;28;19926;-80
2022/12/16 01:00:31;;;;;;;;;;;;;;;-2.99;44.24;100608.00;5091986;28;20311;-79
2022/12/16 01:02:59;;;;;;;;;;;;;;;-3.00;44.22;100620.50;5109974;28;19927;-80
2022/12/16 01:05:28;;;;;;;;;;;;;;;-2.99;44.34;100610.66;5110347;28;19935;-80
2022/12/16 01:07:56;;;;;;;;;;;;;;;-3.01;43.97;100617.88;5106334;28;19919;-80
2022/12/16 01:10:24;;;;;;;;;;;;;;;-3.01;44.33;100617.88;5084748;28;19927;-81
2022/12/16 01:12:52;;;;;;;;;;;;;;;-3.01;44.37;100615.19;5103887;28;20393;-81
2022/12/16 01:15:21;;;;;;;;;;;;;;;-3.02;44.16;100614.31;5106862;28;19919;-80
2022/12/16 01:17:49;;;;;;;;;;;;;;;-3.02;44.25;100621.50;5112463;28;20010;-80
2022/12/16 01:20:17;;;;;;;;;;;;;;;-3.02;44.23;100626.88;5079103;28;19993;-80
2022/12/16 01:22:46;;;;;;;;;;;;;;;-3.03;44.20;100630.47;5094350;28;20454;-81
2022/12/16 01:25:14;;;;;;;;;;;;;;;-3.03;44.34;100625.13;5109920;28;19924;-80
2022/12/16 01:27:41;;;;;;;;;;;;;;;-3.04;43.98;100624.22;5097514;28;19926;-80
2022/12/16 01:30:10;;;;;;;;;;;;;;;-3.04;44.07;100636.75;5100377;28;19977;-79
2022/12/16 01:32:38;;;;;;;;;;;;;;;-3.04;44.16;100640.31;5107839;28;19920;-80
2022/12/16 01:35:05;;;;;;;;;;;;;;;-3.05;44.05;100637.66;5091697;28;19973;-79
2022/12/16 01:37:55;;;;;;;;;;;;;;;-3.05;44.02;100643.91;5094745;28;19920;-80
2022/12/16 01:40:24;;;;;;;;;;;;;;;-3.05;44.14;100643.03;5113428;28;20439;-80
2022/12/16 01:42:52;;;;;;;;;;;;;;;-3.06;44.10;100647.50;5099122;28;20212;-80
2022/12/16 01:45:29;;;;;;;;;;;;;;;-3.06;44.05;100644.81;5114981;28;20072;-80
2022/12/16 01:47:58;;;;;;;;;;;;;;;-3.07;43.74;100648.44;5111316;28;19920;-81
2022/12/16 01:50:28;;;;;;;;;;;;;;;-3.09;44.17;100655.63;5106925;28;20011;-80
2022/12/16 01:52:59;;;;;;;;;;;;;;;-3.09;43.79;100652.94;5113630;28;20378;-81
2022/12/16 01:55:29;;;;;;;;;;;;;;;-3.10;44.02;100651.19;5095217;28;20010;-80
2022/12/16 01:57:59;;;;;;;;;;;;;;;-3.11;43.75;100655.66;5109383;28;19920;-81
2022/12/16 02:00:27;;;;;;;;;;;;;;;-3.11;43.97;100652.16;5096906;28;20451;-80
2022/12/16 02:02:55;;;;;;;;;;;;;;;-3.12;43.71;100656.63;5123726;22;20215;-75
2022/12/16 02:05:23;;;;;;;;;;;;;;;-3.12;43.77;100647.72;5085156;28;19924;-75
2022/12/16 02:07:54;;;;;;;;;;;;;;;-3.13;44.01;100651.31;5084036;28;19920;-75
2022/12/16 02:10:27;;;;;;;;;;;;;;;-3.12;44.10;100653.94;5092806;28;20034;-75
2022/12/16 02:12:59;;;;;;;;;;;;;;;-3.12;44.10;100648.59;5061411;28;19928;-74
2022/12/16 02:15:35;;;;;;;;;;;;;;;-3.11;43.80;100654.84;5080052;28;19938;-75
2022/12/16 02:18:09;;;;;;;;;;;;;;;-3.12;43.93;100659.31;5075744;28;20432;-74
2022/12/16 02:20:46;;;;;;;;;;;;;;;-3.12;44.04;100659.31;5064609;28;19920;-74
2022/12/16 02:23:30;;;;;;;;;;;;;;;-3.12;43.80;100659.31;5082750;28;19920;-73
2022/12/16 02:26:11;;;;;;;;;;;;;;;-3.11;44.06;100660.19;5080281;28;19924;-73
2022/12/16 02:28:45;;;;;;;;;;;;;;;-3.11;43.76;100655.66;5067050;28;19920;-73
2022/12/16 02:31:19;;;;;;;;;;;;;;;-3.10;44.17;100654.75;5085997;28;20399;-74
2022/12/16 02:33:52;;;;;;;;;;;;;;;-3.10;44.10;100659.22;5081089;28;20040;-73
2022/12/16 02:36:25;;;;;;;;;;;;;;;-3.10;43.93;100656.56;5061653;28;20427;-74
2022/12/16 02:38:56;;;;;;;;;;;;;;;-3.11;43.86;100663.69;5068312;28;19927;-74
2022/12/16 02:41:28;;;;;;;;;;;;;;;-3.13;43.79;100662.91;5082030;28;20674;-74
2022/12/16 02:43:58;;;;;;;;;;;;;;;-3.13;43.82;100665.59;5081684;28;19942;-73
2022/12/16 02:46:29;;;;;;;;;;;;;;;-3.13;43.79;100665.59;5077892;28;20323;-74
2022/12/16 02:48:56;;;;;;;;;;;;;;;-3.13;43.69;100659.34;5067471;28;19927;-74
2022/12/16 02:51:25;;;;;;;;;;;;;;;-3.14;43.74;100666.50;5080043;28;19924;-74
2022/12/16 02:53:55;;;;;;;;;;;;;;;-3.13;43.83;100667.38;5081306;28;19924;-74
2022/12/16 02:56:30;;;;;;;;;;;;;;;-3.15;43.81;100672.78;5082516;28;20353;-74
2022/12/16 02:59:06;;;;;;;;;;;;;;;-3.15;43.75;100663.88;5067341;28;19920;-75
2022/12/16 03:01:39;;;;;;;;;;;;;;;-3.17;43.42;100669.28;5084991;28;20018;-73
2022/12/16 03:04:10;;;;;;;;;;;;;;;-3.18;43.35;100667.53;5062120;28;19927;-74
2022/12/16 03:06:40;;;;;;;;;;;;;;;-3.18;43.68;100666.66;5070110;28;20007;-74
2022/12/16 03:09:10;;;;;;;;;;;;;;;-3.20;43.55;100671.19;5084399;28;19920;-73
2022/12/16 03:11:41;;;;;;;;;;;;;;;-3.21;43.64;100670.31;5061589;28;20384;-73
2022/12/16 03:14:12;;;;;;;;;;;;;;;-3.21;43.70;100672.13;5077318;28;19958;-74
2022/12/16 03:16:41;;;;;;;;;;;;;;;-3.23;43.37;100671.28;5072297;28;19950;-74
2022/12/16 03:19:11;;;;;;;;;;;;;;;-3.24;43.41;100667.75;5079039;28;19920;-74
2022/12/16 03:21:43;;;;;;;;;;;;;;;-3.25;43.41;100665.97;5084837;28;20233;-75
2022/12/16 03:24:12;;;;;;;;;;;;;;;-3.27;43.66;100670.50;5059532;28;19920;-74
2022/12/16 03:26:43;;;;;;;;;;;;;;;-3.26;43.15;100679.41;5075622;28;19928;-74
2022/12/16 03:29:14;;;;;;;;;;;;;;;-3.26;43.66;100684.75;5080938;28;19974;-73
2022/12/16 03:31:46;;;;;;;;;;;;;;;-3.28;43.54;100681.28;5062020;28;19947;-74
2022/12/16 03:34:16;;;;;;;;;;;;;;;-3.30;43.55;100686.69;5079044;28;19927;-74
2022/12/16 03:36:47;;;;;;;;;;;;;;;-3.30;43.22;100689.38;5069747;28;19924;-74
2022/12/16 03:39:15;;;;;;;;;;;;;;;-3.31;43.16;100687.59;5076390;28;20280;-74
2022/12/16 03:41:43;;;;;;;;;;;;;;;-3.31;43.42;100684.94;5080403;28;20447;-74
2022/12/16 03:44:11;;;;;;;;;;;;;;;-3.31;43.14;100694.75;5072808;28;19921;-74
2022/12/16 03:46:39;;;;;;;;;;;;;;;-3.34;43.00;100687.69;5061505;28;20300;-74
2022/12/16 03:49:08;;;;;;;;;;;;;;;-3.35;43.03;100685.94;5060069;28;19920;-74
2022/12/16 03:51:36;;;;;;;;;;;;;;;-3.35;43.31;100685.94;5079495;28;20546;-74
2022/12/16 03:54:04;;;;;;;;;;;;;;;-3.36;43.15;100694.94;5080026;28;19971;-74
2022/12/16 03:56:31;;;;;;;;;;;;;;;-3.37;43.19;100692.28;5080477;28;19920;-74
2022/12/16 03:58:59;;;;;;;;;;;;;;;-3.37;43.10;100694.97;5088211;28;19923;-74
2022/12/16 04:01:27;;;;;;;;;;;;;;;-3.38;43.07;100695.88;5080082;28;19973;-74
2022/12/16 04:03:55;;;;;;;;;;;;;;;-3.40;42.90;100689.72;5072903;28;20107;-74
2022/12/16 04:06:24;;;;;;;;;;;;;;;-3.40;43.10;100697.72;5057133;28;20380;-73
2022/12/16 04:08:52;;;;;;;;;;;;;;;-3.41;43.28;100688.81;5076984;28;20352;-73
2022/12/16 04:25:07;;;;;;;;;;;;;;;-3.47;43.05;100703.28;5041564;28;19920;-74
2022/12/16 04:27:35;;;;;;;;;;;;;;;-3.45;43.16;100694.34;5070794;28;20500;-73
2022/12/16 04:30:19;;;;;;;;;;;;;;;-3.46;43.12;100706.84;5058101;28;19920;-73
